Overview Statistics Trail Chart Weather Telemetry Raw packets
 

This is the latest recevied weather packets stored in our database for station/object F4NFR-13. If no packets are shown the sender has not sent any weather packets the latest 10 day(s).

<< 59 60 61 62 >>
Time Temp. Humidity Pressure Rain* Wind** Luminosity Snow
1777706552 15° C 82% 1021.1 hPa 0 mm - 278 W/m² -
1777706191 15° C 85% 1021.1 hPa 0 mm - 293 W/m² -
1777705589 13.89° C 93% 1021.1 hPa 0 mm - 225 W/m² -
1777704986 12.78° C 93% 1021.1 hPa 0 mm - 156 W/m² -
1777704881 12.78° C 93% 1021.1 hPa 0 mm - 179 W/m² -
1777704351 12.78° C 93% 1021.1 hPa 0 mm - 160 W/m² -
1777703861 12.78° C 96% 1020.8 hPa 0 mm - - -
1777703808 12.78° C 95% 1008.8 hPa 0 mm - - -
1777703206 12.78° C 98% 1008.8 hPa 0 mm - - -
1777703065 12.78° C 99% 1008.8 hPa 0 mm - - -
1777699272 22.22° C 56% 1020.4 hPa - - - -
1777698672 22.22° C 57% 1020.4 hPa - - - -
1777697957 22.22° C 57% 1020.3 hPa - - - -
1777697357 21.67° C 57% 1020.2 hPa - - - -
1777668355 23.89° C 58% 1022.5 hPa - - - -
1777667835 23.33° C 59% 1022.4 hPa - - - -
1777667466 23.89° C 58% 1022.2 hPa - - - -
1777667421 23.33° C 60% 1022.3 hPa - - - -
1777666324 24.44° C 53% 1021.7 hPa - - - -
1777666298 24.44° C 52% 1021.8 hPa - - - -
1777665884 23.89° C - - - - - -
1777665290 0° C - - - - - -
1777664712 0° C - - - - - -

* Rain latest hour (hover to see other rain measurements)
** Current wind speed in m/s (hover to see current wind gust speed)